sensor_id;sensor_type;location;lat;lon;timestamp;P1;durP1;ratioP1;P2;durP2;ratioP2
45909;SDS011;31622;55.416;37.840;2023-07-13T00:01:27;2.03;;;1.20;;
45909;SDS011;31622;55.416;37.840;2023-07-13T00:03:53;1.80;;;1.20;;
45909;SDS011;31622;55.416;37.840;2023-07-13T00:06:19;3.65;;;1.35;;
45909;SDS011;31622;55.416;37.840;2023-07-13T00:08:45;2.67;;;1.27;;
45909;SDS011;31622;55.416;37.840;2023-07-13T00:11:12;2.10;;;1.35;;
45909;SDS011;31622;55.416;37.840;2023-07-13T00:13:39;2.33;;;1.40;;
45909;SDS011;31622;55.416;37.840;2023-07-13T00:16:06;1.63;;;0.93;;
45909;SDS011;31622;55.416;37.840;2023-07-13T00:18:32;3.13;;;1.60;;
45909;SDS011;31622;55.416;37.840;2023-07-13T00:20:58;2.28;;;1.20;;
45909;SDS011;31622;55.416;37.840;2023-07-13T00:23:30;2.13;;;1.35;;
45909;SDS011;31622;55.416;37.840;2023-07-13T00:25:59;1.85;;;1.13;;
45909;SDS011;31622;55.416;37.840;2023-07-13T00:28:26;2.03;;;1.20;;
45909;SDS011;31622;55.416;37.840;2023-07-13T00:30:51;1.83;;;1.23;;
45909;SDS011;31622;55.416;37.840;2023-07-13T00:33:17;1.58;;;1.00;;
45909;SDS011;31622;55.416;37.840;2023-07-13T00:35:43;1.70;;;1.00;;
45909;SDS011;31622;55.416;37.840;2023-07-13T00:38:09;2.45;;;1.10;;
45909;SDS011;31622;55.416;37.840;2023-07-13T00:40:35;3.58;;;1.15;;
45909;SDS011;31622;55.416;37.840;2023-07-13T00:43:01;3.53;;;1.25;;
45909;SDS011;31622;55.416;37.840;2023-07-13T00:47:52;1.83;;;1.10;;
45909;SDS011;31622;55.416;37.840;2023-07-13T00:50:19;2.28;;;1.10;;
45909;SDS011;31622;55.416;37.840;2023-07-13T00:52:47;1.80;;;1.10;;
45909;SDS011;31622;55.416;37.840;2023-07-13T00:55:15;1.98;;;1.00;;
45909;SDS011;31622;55.416;37.840;2023-07-13T00:57:41;1.90;;;1.23;;
45909;SDS011;31622;55.416;37.840;2023-07-13T01:00:08;2.90;;;1.05;;
45909;SDS011;31622;55.416;37.840;2023-07-13T01:02:35;1.67;;;1.10;;
45909;SDS011;31622;55.416;37.840;2023-07-13T01:05:08;1.50;;;0.95;;
45909;SDS011;31622;55.416;37.840;2023-07-13T01:07:40;1.55;;;1.10;;
45909;SDS011;31622;55.416;37.840;2023-07-13T01:10:07;1.40;;;0.90;;
45909;SDS011;31622;55.416;37.840;2023-07-13T01:12:33;1.85;;;0.90;;
45909;SDS011;31622;55.416;37.840;2023-07-13T01:15:00;2.55;;;1.15;;
45909;SDS011;31622;55.416;37.840;2023-07-13T01:17:27;3.50;;;1.00;;
45909;SDS011;31622;55.416;37.840;2023-07-13T01:19:53;2.55;;;0.90;;
45909;SDS011;31622;55.416;37.840;2023-07-13T01:22:22;1.60;;;1.05;;
45909;SDS011;31622;55.416;37.840;2023-07-13T01:24:52;1.58;;;0.90;;
45909;SDS011;31622;55.416;37.840;2023-07-13T01:27:22;2.47;;;1.00;;
45909;SDS011;31622;55.416;37.840;2023-07-13T01:29:50;2.33;;;1.02;;
45909;SDS011;31622;55.416;37.840;2023-07-13T01:32:18;1.67;;;0.80;;
45909;SDS011;31622;55.416;37.840;2023-07-13T01:34:52;2.08;;;0.93;;
45909;SDS011;31622;55.416;37.840;2023-07-13T01:37:22;1.40;;;1.10;;
45909;SDS011;31622;55.416;37.840;2023-07-13T01:39:50;3.83;;;1.27;;
45909;SDS011;31622;55.416;37.840;2023-07-13T01:42:16;1.73;;;1.10;;
45909;SDS011;31622;55.416;37.840;2023-07-13T01:44:42;1.90;;;1.13;;
45909;SDS011;31622;55.416;37.840;2023-07-13T01:47:08;1.90;;;0.98;;
45909;SDS011;31622;55.416;37.840;2023-07-13T01:49:34;2.30;;;1.27;;
45909;SDS011;31622;55.416;37.840;2023-07-13T01:52:01;1.63;;;0.90;;
45909;SDS011;31622;55.416;37.840;2023-07-13T01:54:27;1.60;;;0.98;;
45909;SDS011;31622;55.416;37.840;2023-07-13T01:56:52;1.60;;;1.00;;
45909;SDS011;31622;55.416;37.840;2023-07-13T01:59:18;1.50;;;0.82;;
45909;SDS011;31622;55.416;37.840;2023-07-13T02:01:44;1.88;;;1.05;;
45909;SDS011;31622;55.416;37.840;2023-07-13T02:04:09;2.30;;;1.20;;
45909;SDS011;31622;55.416;37.840;2023-07-13T02:06:36;1.83;;;1.10;;
45909;SDS011;31622;55.416;37.840;2023-07-13T02:09:01;3.45;;;1.20;;
45909;SDS011;31622;55.416;37.840;2023-07-13T02:11:28;0.82;;;0.60;;
45909;SDS011;31622;55.416;37.840;2023-07-13T02:14:01;1.40;;;0.90;;
45909;SDS011;31622;55.416;37.840;2023-07-13T02:16:27;1.50;;;1.00;;
45909;SDS011;31622;55.416;37.840;2023-07-13T02:18:55;1.80;;;1.08;;
45909;SDS011;31622;55.416;37.840;2023-07-13T02:21:21;1.98;;;1.10;;
45909;SDS011;31622;55.416;37.840;2023-07-13T02:23:50;1.50;;;0.90;;
45909;SDS011;31622;55.416;37.840;2023-07-13T02:26:17;1.85;;;1.00;;
45909;SDS011;31622;55.416;37.840;2023-07-13T02:28:43;1.73;;;1.08;;
45909;SDS011;31622;55.416;37.840;2023-07-13T02:31:10;3.13;;;0.98;;
45909;SDS011;31622;55.416;37.840;2023-07-13T02:33:37;1.52;;;0.82;;
45909;SDS011;31622;55.416;37.840;2023-07-13T02:36:03;2.65;;;0.90;;
45909;SDS011;31622;55.416;37.840;2023-07-13T02:38:31;1.73;;;0.90;;
45909;SDS011;31622;55.416;37.840;2023-07-13T02:41:01;2.22;;;1.10;;
45909;SDS011;31622;55.416;37.840;2023-07-13T02:43:29;1.52;;;0.93;;
45909;SDS011;31622;55.416;37.840;2023-07-13T02:45:55;1.77;;;0.90;;
45909;SDS011;31622;55.416;37.840;2023-07-13T02:48:21;2.30;;;1.00;;
45909;SDS011;31622;55.416;37.840;2023-07-13T02:50:46;1.60;;;1.00;;
45909;SDS011;31622;55.416;37.840;2023-07-13T02:53:12;1.30;;;0.88;;
45909;SDS011;31622;55.416;37.840;2023-07-13T02:55:38;1.52;;;1.10;;
45909;SDS011;31622;55.416;37.840;2023-07-13T02:58:06;1.30;;;0.80;;
45909;SDS011;31622;55.416;37.840;2023-07-13T03:00:32;1.83;;;1.00;;
45909;SDS011;31622;55.416;37.840;2023-07-13T03:02:58;1.40;;;1.00;;
45909;SDS011;31622;55.416;37.840;2023-07-13T03:05:25;1.60;;;1.10;;
45909;SDS011;31622;55.416;37.840;2023-07-13T03:07:51;2.10;;;0.70;;
45909;SDS011;31622;55.416;37.840;2023-07-13T03:10:17;1.95;;;1.10;;
45909;SDS011;31622;55.416;37.840;2023-07-13T03:12:47;1.83;;;1.00;;
45909;SDS011;31622;55.416;37.840;2023-07-13T03:15:22;1.73;;;1.00;;
45909;SDS011;31622;55.416;37.840;2023-07-13T03:17:49;1.70;;;0.90;;
45909;SDS011;31622;55.416;37.840;2023-07-13T03:20:15;1.77;;;0.95;;
45909;SDS011;31622;55.416;37.840;2023-07-13T03:22:40;1.52;;;1.17;;
45909;SDS011;31622;55.416;37.840;2023-07-13T03:25:07;1.98;;;1.25;;
45909;SDS011;31622;55.416;37.840;2023-07-13T03:27:33;2.53;;;0.98;;
45909;SDS011;31622;55.416;37.840;2023-07-13T03:29:59;1.45;;;1.05;;
45909;SDS011;31622;55.416;37.840;2023-07-13T03:32:25;1.90;;;1.13;;
45909;SDS011;31622;55.416;37.840;2023-07-13T03:34:50;4.07;;;1.30;;
45909;SDS011;31622;55.416;37.840;2023-07-13T03:37:16;1.65;;;0.90;;
45909;SDS011;31622;55.416;37.840;2023-07-13T03:39:42;2.08;;;1.10;;
45909;SDS011;31622;55.416;37.840;2023-07-13T03:42:08;1.95;;;1.33;;
45909;SDS011;31622;55.416;37.840;2023-07-13T03:44:34;2.83;;;1.10;;
45909;SDS011;31622;55.416;37.840;2023-07-13T03:47:00;3.22;;;1.45;;
45909;SDS011;31622;55.416;37.840;2023-07-13T03:49:26;2.00;;;1.17;;
45909;SDS011;31622;55.416;37.840;2023-07-13T03:51:52;2.38;;;1.17;;
45909;SDS011;31622;55.416;37.840;2023-07-13T03:54:18;1.90;;;1.20;;
45909;SDS011;31622;55.416;37.840;2023-07-13T03:56:44;2.33;;;1.40;;
45909;SDS011;31622;55.416;37.840;2023-07-13T03:59:09;2.58;;;1.48;;
45909;SDS011;31622;55.416;37.840;2023-07-13T04:01:35;2.17;;;1.50;;
45909;SDS011;31622;55.416;37.840;2023-07-13T04:04:01;2.72;;;1.52;;
45909;SDS011;31622;55.416;37.840;2023-07-13T04:06:28;2.58;;;1.27;;
45909;SDS011;31622;55.416;37.840;2023-07-13T04:08:56;2.40;;;1.40;;
45909;SDS011;31622;55.416;37.840;2023-07-13T04:11:24;2.42;;;1.25;;
45909;SDS011;31622;55.416;37.840;2023-07-13T04:13:52;1.98;;;1.27;;
45909;SDS011;31622;55.416;37.840;2023-07-13T04:16:18;2.97;;;1.63;;
45909;SDS011;31622;55.416;37.840;2023-07-13T04:18:45;1.98;;;1.20;;
45909;SDS011;31622;55.416;37.840;2023-07-13T04:21:11;2.83;;;1.50;;
45909;SDS011;31622;55.416;37.840;2023-07-13T04:23:37;2.33;;;1.52;;
45909;SDS011;31622;55.416;37.840;2023-07-13T04:26:03;2.47;;;1.48;;
45909;SDS011;31622;55.416;37.840;2023-07-13T04:28:30;2.42;;;1.40;;
45909;SDS011;31622;55.416;37.840;2023-07-13T04:30:56;2.10;;;1.40;;
45909;SDS011;31622;55.416;37.840;2023-07-13T04:33:22;3.00;;;1.42;;
45909;SDS011;31622;55.416;37.840;2023-07-13T04:35:51;3.20;;;1.50;;
45909;SDS011;31622;55.416;37.840;2023-07-13T04:38:25;3.20;;;1.70;;
45909;SDS011;31622;55.416;37.840;2023-07-13T04:40:54;4.30;;;1.45;;
45909;SDS011;31622;55.416;37.840;2023-07-13T04:43:21;3.13;;;1.38;;
45909;SDS011;31622;55.416;37.840;2023-07-13T04:45:46;2.72;;;1.38;;
45909;SDS011;31622;55.416;37.840;2023-07-13T04:48:12;4.03;;;1.30;;
45909;SDS011;31622;55.416;37.840;2023-07-13T04:50:38;2.05;;;1.33;;
45909;SDS011;31622;55.416;37.840;2023-07-13T04:53:04;2.65;;;1.70;;
45909;SDS011;31622;55.416;37.840;2023-07-13T04:55:30;3.63;;;1.58;;
45909;SDS011;31622;55.416;37.840;2023-07-13T04:57:56;6.20;;;1.90;;
45909;SDS011;31622;55.416;37.840;2023-07-13T05:00:24;6.28;;;1.90;;
45909;SDS011;31622;55.416;37.840;2023-07-13T05:02:50;7.28;;;2.35;;
45909;SDS011;31622;55.416;37.840;2023-07-13T05:05:16;7.68;;;2.55;;
45909;SDS011;31622;55.416;37.840;2023-07-13T05:07:42;4.25;;;2.20;;
45909;SDS011;31622;55.416;37.840;2023-07-13T05:10:09;8.52;;;2.92;;
45909;SDS011;31622;55.416;37.840;2023-07-13T05:12:35;8.10;;;2.70;;
45909;SDS011;31622;55.416;37.840;2023-07-13T05:15:01;5.28;;;3.08;;
45909;SDS011;31622;55.416;37.840;2023-07-13T05:17:27;6.03;;;3.38;;
45909;SDS011;31622;55.416;37.840;2023-07-13T05:19:53;10.93;;;3.30;;
45909;SDS011;31622;55.416;37.840;2023-07-13T05:22:18;7.22;;;3.53;;
45909;SDS011;31622;55.416;37.840;2023-07-13T05:24:44;5.45;;;3.05;;
45909;SDS011;31622;55.416;37.840;2023-07-13T05:27:10;5.65;;;3.15;;
45909;SDS011;31622;55.416;37.840;2023-07-13T05:29:36;6.43;;;3.00;;
45909;SDS011;31622;55.416;37.840;2023-07-13T05:32:02;6.05;;;2.95;;
45909;SDS011;31622;55.416;37.840;2023-07-13T05:34:28;7.05;;;3.28;;
45909;SDS011;31622;55.416;37.840;2023-07-13T05:36:54;4.85;;;3.15;;
45909;SDS011;31622;55.416;37.840;2023-07-13T05:39:20;6.18;;;3.13;;
45909;SDS011;31622;55.416;37.840;2023-07-13T05:41:46;6.65;;;3.13;;
45909;SDS011;31622;55.416;37.840;2023-07-13T05:44:11;7.55;;;3.17;;
45909;SDS011;31622;55.416;37.840;2023-07-13T05:46:37;6.00;;;2.85;;
45909;SDS011;31622;55.416;37.840;2023-07-13T05:49:03;4.75;;;2.45;;
45909;SDS011;31622;55.416;37.840;2023-07-13T05:51:29;3.67;;;2.45;;
45909;SDS011;31622;55.416;37.840;2023-07-13T05:53:54;5.80;;;2.85;;
45909;SDS011;31622;55.416;37.840;2023-07-13T05:56:20;4.53;;;2.90;;
45909;SDS011;31622;55.416;37.840;2023-07-13T05:58:47;5.30;;;2.67;;
45909;SDS011;31622;55.416;37.840;2023-07-13T06:01:14;6.18;;;2.67;;
45909;SDS011;31622;55.416;37.840;2023-07-13T06:03:40;3.42;;;2.50;;
45909;SDS011;31622;55.416;37.840;2023-07-13T06:06:07;10.68;;;2.85;;
45909;SDS011;31622;55.416;37.840;2023-07-13T06:08:33;7.53;;;3.15;;
45909;SDS011;31622;55.416;37.840;2023-07-13T06:11:32;10.13;;;3.35;;
45909;SDS011;31622;55.416;37.840;2023-07-13T06:13:52;15.38;;;4.38;;
45909;SDS011;31622;55.416;37.840;2023-07-13T06:16:19;15.43;;;3.58;;
45909;SDS011;31622;55.416;37.840;2023-07-13T06:18:45;11.23;;;3.63;;
45909;SDS011;31622;55.416;37.840;2023-07-13T06:21:15;8.95;;;3.42;;
45909;SDS011;31622;55.416;37.840;2023-07-13T06:23:43;58.90;;;26.77;;
45909;SDS011;31622;55.416;37.840;2023-07-13T06:26:09;36.42;;;15.02;;
45909;SDS011;31622;55.416;37.840;2023-07-13T06:28:36;24.63;;;11.75;;
45909;SDS011;31622;55.416;37.840;2023-07-13T06:31:04;26.58;;;10.40;;
45909;SDS011;31622;55.416;37.840;2023-07-13T06:33:34;21.02;;;8.57;;
45909;SDS011;31622;55.416;37.840;2023-07-13T06:36:01;18.50;;;7.60;;
45909;SDS011;31622;55.416;37.840;2023-07-13T06:38:27;13.15;;;5.88;;
45909;SDS011;31622;55.416;37.840;2023-07-13T06:40:53;15.77;;;6.43;;
45909;SDS011;31622;55.416;37.840;2023-07-13T06:43:18;13.77;;;5.45;;
45909;SDS011;31622;55.416;37.840;2023-07-13T06:45:46;12.68;;;5.20;;
45909;SDS011;31622;55.416;37.840;2023-07-13T06:48:14;11.70;;;5.57;;
45909;SDS011;31622;55.416;37.840;2023-07-13T06:50:41;11.65;;;5.10;;
45909;SDS011;31622;55.416;37.840;2023-07-13T06:53:08;10.15;;;4.85;;
45909;SDS011;31622;55.416;37.840;2023-07-13T06:55:34;10.98;;;4.65;;
45909;SDS011;31622;55.416;37.840;2023-07-13T06:57:59;10.90;;;4.57;;
45909;SDS011;31622;55.416;37.840;2023-07-13T07:00:25;10.68;;;4.80;;
45909;SDS011;31622;55.416;37.840;2023-07-13T07:02:51;9.02;;;4.60;;
45909;SDS011;31622;55.416;37.840;2023-07-13T07:05:16;7.32;;;4.75;;
45909;SDS011;31622;55.416;37.840;2023-07-13T07:07:42;7.88;;;4.22;;
45909;SDS011;31622;55.416;37.840;2023-07-13T07:10:08;8.52;;;4.82;;
45909;SDS011;31622;55.416;37.840;2023-07-13T07:12:34;12.00;;;5.25;;
45909;SDS011;31622;55.416;37.840;2023-07-13T07:15:00;45.90;;;13.95;;
45909;SDS011;31622;55.416;37.840;2023-07-13T07:17:25;29.70;;;11.43;;
45909;SDS011;31622;55.416;37.840;2023-07-13T07:19:52;40.33;;;13.13;;
45909;SDS011;31622;55.416;37.840;2023-07-13T07:22:21;38.17;;;12.35;;
45909;SDS011;31622;55.416;37.840;2023-07-13T07:24:46;39.88;;;12.23;;
45909;SDS011;31622;55.416;37.840;2023-07-13T07:27:12;29.70;;;11.05;;
45909;SDS011;31622;55.416;37.840;2023-07-13T07:29:38;31.38;;;10.68;;
45909;SDS011;31622;55.416;37.840;2023-07-13T07:32:04;33.33;;;10.20;;
45909;SDS011;31622;55.416;37.840;2023-07-13T07:34:30;26.85;;;10.55;;
45909;SDS011;31622;55.416;37.840;2023-07-13T07:36:58;25.67;;;10.20;;
45909;SDS011;31622;55.416;37.840;2023-07-13T07:39:26;24.90;;;9.73;;
45909;SDS011;31622;55.416;37.840;2023-07-13T07:41:51;27.13;;;9.35;;
45909;SDS011;31622;55.416;37.840;2023-07-13T07:44:17;26.92;;;8.98;;
45909;SDS011;31622;55.416;37.840;2023-07-13T07:46:43;22.67;;;9.02;;
45909;SDS011;31622;55.416;37.840;2023-07-13T07:49:09;25.50;;;8.85;;
45909;SDS011;31622;55.416;37.840;2023-07-13T07:51:35;20.05;;;7.78;;
45909;SDS011;31622;55.416;37.840;2023-07-13T07:54:02;22.85;;;7.78;;
45909;SDS011;31622;55.416;37.840;2023-07-13T07:56:29;21.90;;;8.07;;
45909;SDS011;31622;55.416;37.840;2023-07-13T07:58:55;20.98;;;8.30;;
45909;SDS011;31622;55.416;37.840;2023-07-13T08:01:20;21.45;;;7.90;;
45909;SDS011;31622;55.416;37.840;2023-07-13T08:03:46;19.40;;;7.68;;
45909;SDS011;31622;55.416;37.840;2023-07-13T08:06:12;20.33;;;7.40;;
45909;SDS011;31622;55.416;37.840;2023-07-13T08:08:38;25.90;;;7.45;;
45909;SDS011;31622;55.416;37.840;2023-07-13T08:11:04;51.33;;;9.35;;
45909;SDS011;31622;55.416;37.840;2023-07-13T08:13:32;44.75;;;9.13;;
45909;SDS011;31622;55.416;37.840;2023-07-13T08:15:58;36.17;;;8.23;;
45909;SDS011;31622;55.416;37.840;2023-07-13T08:18:24;35.95;;;7.72;;
45909;SDS011;31622;55.416;37.840;2023-07-13T08:20:50;24.27;;;6.95;;
45909;SDS011;31622;55.416;37.840;2023-07-13T08:23:17;27.83;;;6.78;;
45909;SDS011;31622;55.416;37.840;2023-07-13T08:25:42;23.52;;;6.40;;
45909;SDS011;31622;55.416;37.840;2023-07-13T08:28:16;21.83;;;5.50;;
45909;SDS011;31622;55.416;37.840;2023-07-13T08:30:42;25.73;;;6.40;;
45909;SDS011;31622;55.416;37.840;2023-07-13T08:33:07;27.30;;;6.80;;
45909;SDS011;31622;55.416;37.840;2023-07-13T08:35:33;22.00;;;7.07;;
45909;SDS011;31622;55.416;37.840;2023-07-13T08:37:59;22.45;;;5.85;;
45909;SDS011;31622;55.416;37.840;2023-07-13T08:40:26;23.05;;;6.18;;
45909;SDS011;31622;55.416;37.840;2023-07-13T08:42:57;17.05;;;5.55;;
45909;SDS011;31622;55.416;37.840;2023-07-13T08:50:49;13.38;;;5.35;;
45909;SDS011;31622;55.416;37.840;2023-07-13T08:53:21;15.35;;;5.15;;
45909;SDS011;31622;55.416;37.840;2023-07-13T08:55:48;12.55;;;4.55;;
45909;SDS011;31622;55.416;37.840;2023-07-13T08:58:17;12.55;;;5.03;;
45909;SDS011;31622;55.416;37.840;2023-07-13T09:03:34;11.43;;;4.82;;
45909;SDS011;31622;55.416;37.840;2023-07-13T09:06:02;10.70;;;4.68;;
45909;SDS011;31622;55.416;37.840;2023-07-13T09:08:46;8.57;;;4.00;;
45909;SDS011;31622;55.416;37.840;2023-07-13T09:14:22;8.68;;;3.78;;
45909;SDS011;31622;55.416;37.840;2023-07-13T09:17:01;8.02;;;3.50;;
45909;SDS011;31622;55.416;37.840;2023-07-13T09:19:30;7.65;;;3.47;;
45909;SDS011;31622;55.416;37.840;2023-07-13T09:21:58;7.03;;;3.20;;
45909;SDS011;31622;55.416;37.840;2023-07-13T09:24:35;7.35;;;3.05;;
45909;SDS011;31622;55.416;37.840;2023-07-13T09:27:14;8.98;;;3.75;;
45909;SDS011;31622;55.416;37.840;2023-07-13T09:29:45;8.15;;;3.22;;
45909;SDS011;31622;55.416;37.840;2023-07-13T09:32:14;7.60;;;3.00;;
45909;SDS011;31622;55.416;37.840;2023-07-13T09:34:43;5.30;;;3.15;;
45909;SDS011;31622;55.416;37.840;2023-07-13T09:37:16;6.00;;;3.25;;
45909;SDS011;31622;55.416;37.840;2023-07-13T09:39:42;7.32;;;3.70;;
45909;SDS011;31622;55.416;37.840;2023-07-13T09:44:37;8.85;;;3.45;;
45909;SDS011;31622;55.416;37.840;2023-07-13T09:47:26;6.80;;;3.00;;
45909;SDS011;31622;55.416;37.840;2023-07-13T09:50:09;6.03;;;3.78;;
45909;SDS011;31622;55.416;37.840;2023-07-13T09:57:48;5.82;;;3.28;;
45909;SDS011;31622;55.416;37.840;2023-07-13T10:00:25;5.05;;;3.15;;
45909;SDS011;31622;55.416;37.840;2023-07-13T10:03:09;6.10;;;3.10;;
45909;SDS011;31622;55.416;37.840;2023-07-13T10:05:46;5.03;;;3.00;;
45909;SDS011;31622;55.416;37.840;2023-07-13T10:08:19;4.90;;;3.33;;
45909;SDS011;31622;55.416;37.840;2023-07-13T10:13:31;6.35;;;3.00;;
45909;SDS011;31622;55.416;37.840;2023-07-13T10:16:04;4.85;;;3.05;;
45909;SDS011;31622;55.416;37.840;2023-07-13T10:18:35;6.55;;;3.65;;
45909;SDS011;31622;55.416;37.840;2023-07-13T10:21:13;27.20;;;10.65;;
45909;SDS011;31622;55.416;37.840;2023-07-13T10:23:41;69.18;;;20.45;;
45909;SDS011;31622;55.416;37.840;2023-07-13T10:26:10;60.97;;;18.33;;
45909;SDS011;31622;55.416;37.840;2023-07-13T10:28:40;52.13;;;18.80;;
45909;SDS011;31622;55.416;37.840;2023-07-13T10:31:09;46.10;;;16.80;;
45909;SDS011;31622;55.416;37.840;2023-07-13T10:33:37;47.72;;;16.55;;
45909;SDS011;31622;55.416;37.840;2023-07-13T10:36:08;37.30;;;15.38;;
45909;SDS011;31622;55.416;37.840;2023-07-13T10:38:54;42.97;;;15.35;;
45909;SDS011;31622;55.416;37.840;2023-07-13T10:41:21;38.45;;;13.85;;
45909;SDS011;31622;55.416;37.840;2023-07-13T10:43:53;34.55;;;14.40;;
45909;SDS011;31622;55.416;37.840;2023-07-13T10:46:21;35.28;;;12.88;;
45909;SDS011;31622;55.416;37.840;2023-07-13T10:48:54;39.83;;;12.13;;
45909;SDS011;31622;55.416;37.840;2023-07-13T10:51:22;29.33;;;11.95;;
45909;SDS011;31622;55.416;37.840;2023-07-13T10:53:48;34.55;;;10.95;;
45909;SDS011;31622;55.416;37.840;2023-07-13T10:56:44;29.63;;;10.10;;
45909;SDS011;31622;55.416;37.840;2023-07-13T10:59:15;25.23;;;9.80;;
45909;SDS011;31622;55.416;37.840;2023-07-13T11:01:56;21.88;;;9.75;;
45909;SDS011;31622;55.416;37.840;2023-07-13T11:04:24;23.27;;;8.48;;
45909;SDS011;31622;55.416;37.840;2023-07-13T11:07:00;22.33;;;8.25;;
45909;SDS011;31622;55.416;37.840;2023-07-13T11:09:40;19.38;;;7.70;;
45909;SDS011;31622;55.416;37.840;2023-07-13T11:14:36;18.40;;;6.75;;
45909;SDS011;31622;55.416;37.840;2023-07-13T11:19:54;13.35;;;6.82;;
45909;SDS011;31622;55.416;37.840;2023-07-13T11:22:53;14.02;;;5.63;;
45909;SDS011;31622;55.416;37.840;2023-07-13T11:25:43;15.07;;;5.75;;
45909;SDS011;31622;55.416;37.840;2023-07-13T11:33:31;10.20;;;4.70;;
45909;SDS011;31622;55.416;37.840;2023-07-13T11:36:21;9.18;;;4.38;;
45909;SDS011;31622;55.416;37.840;2023-07-13T11:38:57;10.75;;;4.55;;
45909;SDS011;31622;55.416;37.840;2023-07-13T11:41:52;9.13;;;4.47;;
45909;SDS011;31622;55.416;37.840;2023-07-13T11:44:22;11.25;;;4.50;;
45909;SDS011;31622;55.416;37.840;2023-07-13T11:46:59;10.77;;;4.60;;
45909;SDS011;31622;55.416;37.840;2023-07-13T11:49:30;6.53;;;3.78;;
45909;SDS011;31622;55.416;37.840;2023-07-13T11:51:57;7.85;;;3.60;;
45909;SDS011;31622;55.416;37.840;2023-07-13T11:56:57;7.55;;;4.10;;
45909;SDS011;31622;55.416;37.840;2023-07-13T11:59:31;8.15;;;3.85;;
45909;SDS011;31622;55.416;37.840;2023-07-13T12:01:58;8.85;;;4.07;;
45909;SDS011;31622;55.416;37.840;2023-07-13T12:04:25;7.68;;;3.50;;
45909;SDS011;31622;55.416;37.840;2023-07-13T12:07:02;7.63;;;3.40;;
45909;SDS011;31622;55.416;37.840;2023-07-13T12:09:30;8.85;;;3.25;;
45909;SDS011;31622;55.416;37.840;2023-07-13T12:11:57;5.55;;;3.10;;
45909;SDS011;31622;55.416;37.840;2023-07-13T12:14:25;4.93;;;3.15;;
45909;SDS011;31622;55.416;37.840;2023-07-13T12:16:51;5.85;;;2.90;;
45909;SDS011;31622;55.416;37.840;2023-07-13T12:19:22;5.28;;;3.35;;
45909;SDS011;31622;55.416;37.840;2023-07-13T12:21:49;5.97;;;3.50;;
45909;SDS011;31622;55.416;37.840;2023-07-13T12:24:18;6.13;;;3.70;;
45909;SDS011;31622;55.416;37.840;2023-07-13T12:26:50;8.90;;;3.50;;
45909;SDS011;31622;55.416;37.840;2023-07-13T12:31:45;6.32;;;3.60;;
45909;SDS011;31622;55.416;37.840;2023-07-13T12:34:13;8.05;;;3.72;;
45909;SDS011;31622;55.416;37.840;2023-07-13T12:36:41;5.75;;;2.97;;
45909;SDS011;31622;55.416;37.840;2023-07-13T12:41:50;6.32;;;3.75;;
45909;SDS011;31622;55.416;37.840;2023-07-13T12:44:26;6.05;;;3.47;;
45909;SDS011;31622;55.416;37.840;2023-07-13T12:46:58;7.03;;;3.95;;
45909;SDS011;31622;55.416;37.840;2023-07-13T12:49:30;9.82;;;3.80;;
45909;SDS011;31622;55.416;37.840;2023-07-13T12:52:01;5.97;;;4.10;;
45909;SDS011;31622;55.416;37.840;2023-07-13T12:54:29;6.95;;;4.47;;
45909;SDS011;31622;55.416;37.840;2023-07-13T12:56:55;6.00;;;4.38;;
45909;SDS011;31622;55.416;37.840;2023-07-13T12:59:23;8.50;;;4.40;;
45909;SDS011;31622;55.416;37.840;2023-07-13T13:01:51;6.20;;;4.43;;
45909;SDS011;31622;55.416;37.840;2023-07-13T13:04:18;7.35;;;4.28;;
45909;SDS011;31622;55.416;37.840;2023-07-13T13:06:47;8.07;;;4.25;;
45909;SDS011;31622;55.416;37.840;2023-07-13T13:09:14;9.15;;;4.20;;
45909;SDS011;31622;55.416;37.840;2023-07-13T13:11:41;7.90;;;4.70;;
45909;SDS011;31622;55.416;37.840;2023-07-13T13:14:07;5.90;;;4.32;;
45909;SDS011;31622;55.416;37.840;2023-07-13T13:16:47;6.38;;;4.40;;
45909;SDS011;31622;55.416;37.840;2023-07-13T13:19:25;6.13;;;4.13;;
45909;SDS011;31622;55.416;37.840;2023-07-13T13:21:54;6.57;;;4.75;;
45909;SDS011;31622;55.416;37.840;2023-07-13T13:24:22;9.23;;;4.30;;
45909;SDS011;31622;55.416;37.840;2023-07-13T13:26:50;5.60;;;4.05;;
45909;SDS011;31622;55.416;37.840;2023-07-13T13:29:20;4.90;;;4.03;;
45909;SDS011;31622;55.416;37.840;2023-07-13T13:31:49;7.25;;;4.10;;
45909;SDS011;31622;55.416;37.840;2023-07-13T13:34:15;5.57;;;4.50;;
45909;SDS011;31622;55.416;37.840;2023-07-13T13:36:42;5.32;;;3.92;;
45909;SDS011;31622;55.416;37.840;2023-07-13T13:39:31;6.47;;;4.13;;
45909;SDS011;31622;55.416;37.840;2023-07-13T13:42:00;5.40;;;4.18;;
45909;SDS011;31622;55.416;37.840;2023-07-13T13:44:26;5.38;;;3.95;;
45909;SDS011;31622;55.416;37.840;2023-07-13T13:46:52;6.40;;;4.15;;
45909;SDS011;31622;55.416;37.840;2023-07-13T13:49:23;4.47;;;3.58;;
45909;SDS011;31622;55.416;37.840;2023-07-13T13:51:50;5.40;;;3.65;;
45909;SDS011;31622;55.416;37.840;2023-07-13T13:54:17;5.88;;;4.03;;
45909;SDS011;31622;55.416;37.840;2023-07-13T13:56:44;6.40;;;3.80;;
45909;SDS011;31622;55.416;37.840;2023-07-13T13:59:14;4.47;;;3.65;;
45909;SDS011;31622;55.416;37.840;2023-07-13T14:01:40;5.40;;;3.50;;
45909;SDS011;31622;55.416;37.840;2023-07-13T14:04:28;3.95;;;3.20;;
45909;SDS011;31622;55.416;37.840;2023-07-13T14:06:53;4.72;;;3.40;;
45909;SDS011;31622;55.416;37.840;2023-07-13T14:09:19;4.72;;;3.38;;
45909;SDS011;31622;55.416;37.840;2023-07-13T14:11:45;3.90;;;3.00;;
45909;SDS011;31622;55.416;37.840;2023-07-13T14:14:14;5.40;;;3.08;;
45909;SDS011;31622;55.416;37.840;2023-07-13T14:16:47;5.03;;;3.28;;
45909;SDS011;31622;55.416;37.840;2023-07-13T14:19:18;4.30;;;3.50;;
45909;SDS011;31622;55.416;37.840;2023-07-13T14:21:44;5.28;;;3.50;;
45909;SDS011;31622;55.416;37.840;2023-07-13T14:24:10;4.50;;;3.42;;
45909;SDS011;31622;55.416;37.840;2023-07-13T14:26:40;8.90;;;3.22;;
45909;SDS011;31622;55.416;37.840;2023-07-13T14:29:16;7.22;;;3.47;;
45909;SDS011;31622;55.416;37.840;2023-07-13T14:31:43;4.53;;;3.22;;
45909;SDS011;31622;55.416;37.840;2023-07-13T14:34:12;4.05;;;2.88;;
45909;SDS011;31622;55.416;37.840;2023-07-13T14:36:43;4.95;;;3.00;;
45909;SDS011;31622;55.416;37.840;2023-07-13T14:39:23;6.00;;;3.28;;
45909;SDS011;31622;55.416;37.840;2023-07-13T14:41:50;6.22;;;2.83;;
45909;SDS011;31622;55.416;37.840;2023-07-13T14:44:18;4.40;;;2.95;;
45909;SDS011;31622;55.416;37.840;2023-07-13T14:46:49;6.28;;;2.80;;
45909;SDS011;31622;55.416;37.840;2023-07-13T14:49:29;3.88;;;2.85;;
45909;SDS011;31622;55.416;37.840;2023-07-13T14:51:57;4.05;;;2.92;;
45909;SDS011;31622;55.416;37.840;2023-07-13T14:54:24;3.60;;;2.92;;
45909;SDS011;31622;55.416;37.840;2023-07-13T14:56:50;4.28;;;3.05;;
45909;SDS011;31622;55.416;37.840;2023-07-13T14:59:16;4.53;;;3.38;;
45909;SDS011;31622;55.416;37.840;2023-07-13T15:01:44;8.13;;;4.03;;
45909;SDS011;31622;55.416;37.840;2023-07-13T15:04:10;5.03;;;3.97;;
45909;SDS011;31622;55.416;37.840;2023-07-13T15:06:58;5.07;;;3.78;;
45909;SDS011;31622;55.416;37.840;2023-07-13T15:09:24;7.25;;;4.18;;
45909;SDS011;31622;55.416;37.840;2023-07-13T15:11:54;7.65;;;4.15;;
45909;SDS011;31622;55.416;37.840;2023-07-13T15:14:20;5.90;;;3.75;;
45909;SDS011;31622;55.416;37.840;2023-07-13T15:16:46;6.55;;;4.00;;
45909;SDS011;31622;55.416;37.840;2023-07-13T15:19:14;5.45;;;3.88;;
45909;SDS011;31622;55.416;37.840;2023-07-13T15:21:42;6.25;;;3.97;;